Terminal Aerodrome Forecast
Issued by NWS Twin Cities, MN

Home | Current Version | Previous Version | Text Only | Print | Product List | Glossary On
Versions: 1 2 3 4 5 6 7 8 9 10 11 12 13 14 15 16 17 18 19 20 21
000
FTUS43 KMPX 261759 CCA
TAFSTC
TAF COR
KSTC 261759Z 2618/2718 02006KT P6SM OVC015
     FM271200 VRB03KT P6SM OVC020
     FM271500 03002KT P6SM SCT030 OVC100=

USA.gov is the U.S. government's official web portal to all federal, state and local government web resources and services.